FW6411 Weather Reports


time (UTC)temp
F
wind
direction
speed
knots
gust
knots
rain 1hr
in
rain 24hr
in
rain mn
in
humidity
%
barometer
mb
20260505091014 42 204 4.3 10.4 0.00 0.05 0.00 85 1010.3
20260505090512 42 147 5.2 10.4 0.00 0.05 0.00 85 1010.2
20260505090009 42 194 6.1 10.4 0.00 0.05 0.00 85 1010.3
20260505085508 42 212 6.1 10.4 0.00 0.06 0.00 85 1010.1
20260505085005 42 223 4.3 8.7 0.00 0.06 0.00 85 1010.1
20260505084504 42 262 2.6 7.8 0.00 0.06 0.00 84 1010.0
20260505084003 42 232 4.3 11.3 0.00 0.06 0.00 84 1009.9
20260505083502 42 215 7.0 11.3 0.00 0.06 0.00 84 1009.9
20260505083100 42 203 6.1 10.4 0.00 0.06 0.00 84 1009.8
20260505082558 43 244 6.1 9.6 0.00 0.06 0.00 84 1009.8
20260505082056 43 194 3.5 9.6 0.00 0.06 0.00 83 1009.7
20260505081556 43 235 3.5 7.0 0.00 0.06 0.00 83 1009.7
20260505081053 43 192 4.3 7.8 0.00 0.06 0.00 82 1009.6
20260505080552 43 211 3.5 7.8 0.00 0.06 0.00 81 1009.5
20260505080057 44 201 3.5 8.7 0.00 0.06 0.00 80 1009.4
20260505075548 44 202 4.3 8.7 0.00 0.08 0.00 80 1009.4
20260505075048 45 203 5.2 8.7 0.00 0.08 0.00 79 1009.4
20260505074547 45 207 3.5 7.0 0.00 0.08 0.00 78 1009.2
20260505074048 45 292 2.6 8.7 0.00 0.08 0.00 79 1009.2
20260505073545 45 232 2.6 8.7 0.00 0.08 0.00 79 1009.1
20260505073051 45 185 1.7 5.2 0.00 0.08 0.00 79 1009.0
20260505072543 45 183 0.9 7.0 0.00 0.08 0.00 80 1008.9
20260505072043 45 190 1.7 7.0 0.00 0.08 0.00 80 1008.8
20260505071541 45 146 1.7 6.1 0.00 0.08 0.00 81 1008.7
20260505071040 44 261 1.7 7.0 0.00 0.08 0.00 82 1008.8
20260505070539 44 237 2.6 7.0 0.00 0.08 0.00 83 1008.7
20260505070048 43 200 3.5 7.0 0.00 0.08 0.00 83 1008.6
20260505065537 43 186 3.5 7.0 0.00 0.09 0.00 83 1008.5
20260505065034 43 209 4.3 7.0 0.00 0.09 0.00 83 1008.4
20260505064535 43 233 5.2 7.0 0.00 0.09 0.00 83 1008.3
20260505064032 43 194 3.5 7.0 0.00 0.09 0.00 83 1008.3
20260505063532 43 201 3.5 7.8 0.00 0.09 0.00 83 1008.2
20260505063030 43 200 3.5 7.8 0.00 0.09 0.00 83 1008.1
20260505062529 43 211 3.5 6.1 0.00 0.09 0.00 82 1008.0
20260505062028 44 222 2.6 7.0 0.00 0.09 0.00 82 1008.1
20260505061535 44 237 3.5 7.0 0.00 0.09 0.00 82 1007.9
20260505061024 44 197 3.5 7.0 0.00 0.09 0.00 82 1007.7
20260505060526 44 211 3.5 6.1 0.00 0.09 0.00 81 1007.6
20260505060021 44 209 3.5 5.2 0.00 0.09 0.00 81 1007.6
20260505055521 44 180 2.6 5.2 0.00 0.10 0.00 80 1007.4
20260505055018 44 215 2.6 5.2 0.00 0.10 0.00 80 1007.2
20260505054517 44 190 1.7 4.3 0.00 0.10 0.00 80 1007.2
20260505054016 44 168 1.7 4.3 0.00 0.10 0.00 79 1007.2
20260505053516 44 185 1.7 5.2 0.00 0.10 0.00 79 1007.1
20260505053015 44 178 2.6 5.2 0.00 0.10 0.00 79 1007.0
20260505052511 44 196 2.6 7.8 0.00 0.10 0.00 79 1006.9
20260505052010 44 176 2.6 7.8 0.00 0.10 0.00 78 1006.9
20260505051609 44 215 1.7 5.2 0.00 0.10 0.00 78 1006.9
20260505051007 45 175 1.7 5.2 0.00 0.10 0.00 78 1006.9
20260505050506 45 152 1.7 4.3 0.00 0.10 0.00 77 1006.8
20260505041558 46 169 0.9 4.3 0.00 0.13 0.00 74 1006.0
20260505041051 46 229 0.9 4.3 0.00 0.13 0.00 74 1006.0
20260505040550 47 189 1.7 4.3 0.00 0.13 0.00 73 1005.9
20260505040053 47 208 0.9 6.1 0.00 0.13 0.00 73 1005.8
20260505035545 47 175 2.6 7.8 0.00 0.13 0.00 73 1005.7
20260505035048 47 216 2.6 7.8 0.00 0.13 0.00 72 1005.5
20260505034544 47 164 3.5 7.0 0.00 0.13 0.00 72 1005.4
20260505034047 48 268 2.6 9.6 0.00 0.13 0.00 72 1005.3
20260505033541 48 209 4.3 11.3 0.00 0.13 0.00 71 1005.2
20260505033041 48 210 6.1 11.3 0.00 0.13 0.00 71 1005.1
20260505032539 48 200 5.2 11.3 0.00 0.13 0.00 71 1005.0
20260505032037 48 160 6.1 11.3 0.00 0.13 0.00 71 1004.9
20260505031542 48 201 7.0 11.3 0.00 0.13 0.00 70 1004.7
20260505031034 48 165 6.1 11.3 0.00 0.13 0.00 70 1004.6
20260505030534 48 201 7.0 11.3 0.00 0.13 0.00 69 1004.7
20260505030031 48 220 7.0 13.0 0.00 0.13 0.00 70 1004.6
20260505025530 48 193 7.0 13.0 0.00 0.13 0.13 70 1004.5
20260505025028 48 195 7.8 13.9 0.00 0.13 0.13 70 1004.5
20260505024530 48 185 8.7 13.9 0.00 0.13 0.13 69 1004.4
20260505024028 48 213 7.0 12.2 0.00 0.13 0.13 69 1004.4
20260505023526 48 188 6.1 9.6 0.00 0.13 0.13 69 1004.4
20260505023026 47 198 6.1 9.6 0.00 0.13 0.13 69 1004.4
20260505022525 47 168 6.1 10.4 0.00 0.13 0.13 68 1004.4
20260505022025 47 237 7.0 13.0 0.00 0.13 0.13 68 1004.3
20260505021523 47 204 7.0 13.0 0.00 0.13 0.13 67 1004.2
20260505021022 48 218 7.0 12.2 0.00 0.13 0.13 66 1004.2
20260505020522 48 202 5.2 13.0 0.00 0.13 0.13 65 1004.1
20260505020021 48 203 7.8 13.0 0.00 0.13 0.13 64 1004.0
20260505015521 48 224 5.2 13.9 0.00 0.15 0.13 64 1003.9
20260505015020 49 184 5.2 13.9 0.00 0.15 0.13 64 1004.0
20260505014522 49 230 6.1 12.2 0.00 0.15 0.13 64 1004.0
20260505014018 49 229 7.0 11.3 0.00 0.15 0.13 65 1004.0
20260505013517 49 171 5.2 10.4 0.00 0.15 0.13 65 1004.0
20260505013017 50 220 6.1 10.4 0.00 0.15 0.13 64 1004.0
20260505012517 50 206 5.2 11.3 0.00 0.15 0.13 64 1004.0
20260505012016 51 218 6.1 11.3 0.00 0.15 0.13 62 1004.1
20260505011516 51 206 4.3 10.4 0.00 0.15 0.13 62 1004.0
20260505011014 51 166 6.1 11.3 0.00 0.15 0.13 61 1004.0
20260505010514 51 201 4.3 12.2 0.00 0.15 0.13 60 1004.0
20260505010016 51 187 3.5 12.2 0.00 0.15 0.13 60 1004.0
20260505005512 51 140 3.5 13.9 0.00 0.23 0.13 59 1004.1
20260505005012 51 116 5.2 13.9 0.00 0.23 0.13 58 1003.9
20260505004512 51 221 5.2 10.4 0.00 0.23 0.13 58 1003.9
20260505004011 51 237 4.3 13.0 0.00 0.23 0.13 59 1004.0
20260505003513 51 175 6.1 13.9 0.00 0.23 0.13 58 1004.0
20260505003009 51 157 4.3 13.9 0.00 0.23 0.13 58 1004.0
20260505002509 51 202 2.6 11.3 0.00 0.23 0.13 58 1003.8
20260505002009 52 162 2.6 12.2 0.00 0.23 0.13 57 1003.7
20260505001508 52 210 3.5 20.0 0.00 0.23 0.13 56 1003.6
20260505001008 51 185 7.8 20.0 0.00 0.23 0.13 54 1003.7
20260505000507 50 223 6.1 16.5 0.00 0.23 0.13 54 1003.8
20260505000006 50 198 6.1 16.5 0.00 0.23 0.13 55 1003.4
20260504235507 50 234 4.3 8.7 0.00 0.39 0.13 54 1003.3
20260504235002 51 218 2.6 7.0 0.00 0.39 0.13 54 1003.2
20260504234501 51 206 2.6 8.7 0.00 0.39 0.13 54 1003.0
20260504234100 51 191 4.3 8.7 0.00 0.39 0.13 54 1002.9
20260504234002 51 191 4.3 8.7 0.00 0.39 0.13 54 1002.9
20260504233559 51 185 3.5 7.8 0.00 0.39 0.13 54 1002.9
20260504233109 51 208 3.5 9.6 0.00 0.39 0.13 54 1002.8
20260504232558 51 180 3.5 11.3 0.00 0.39 0.13 53 1002.8
20260504232056 51 197 5.2 11.3 0.00 0.39 0.13 53 1002.7
20260504231556 51 148 4.3 10.4 0.00 0.39 0.13 53 1002.7
20260504231055 51 188 5.2 9.6 0.00 0.39 0.13 54 1002.7
20260504230555 51 224 3.5 9.6 0.00 0.39 0.13 54 1002.6
20260504230053 51 218 3.5 9.6 0.00 0.39 0.13 54 1002.6
20260504225553 52 218 6.1 9.6 0.00 0.54 0.13 54 1002.5
20260504225052 52 175 4.3 10.4 0.00 0.54 0.13 53 1002.5
20260504224556 52 313 6.1 10.4 0.00 0.54 0.13 53 1002.5
20260504224049 53 182 5.2 10.4 0.00 0.54 0.13 51 1002.6
20260504223548 53 133 2.6 12.2 0.00 0.54 0.13 49 1002.5
20260504223100 53 173 3.5 12.2 0.00 0.54 0.13 48 1002.4
20260504222545 53 180 3.5 10.4 0.00 0.54 0.13 47 1002.4
20260504222045 53 292 3.5 9.6 0.00 0.54 0.13 48 1002.1
20260504221544 54 218 3.5 11.3 0.00 0.54 0.13 48 1002.1
20260504221047 54 132 4.3 14.8 0.00 0.54 0.13 46 1002.0
20260504220542 55 289 4.3 14.8 0.00 0.54 0.13 46 1002.0
20260504220041 55 199 2.6 10.4 0.00 0.54 0.13 46 1002.0
20260504215540 55 92 2.6 12.2 0.00 0.74 0.13 46 1001.9
20260504215045 54 314 3.5 12.2 0.00 0.74 0.13 46 1001.9
20260504214538 54 149 5.2 11.3 0.00 0.74 0.13 46 1002.0
20260504214041 55 14 5.2 11.3 0.00 0.74 0.13 46 1001.9
20260504213538 55 220 2.6 14.8 0.00 0.74 0.13 47 1001.7
20260504213050 54 32 3.5 14.8 0.00 0.74 0.13 46 1001.8
20260504212537 54 69 4.3 14.8 0.00 0.74 0.13 46 1001.8
20260504212035 54 207 6.1 14.8 0.00 0.74 0.13 46 1001.7
20260504211537 54 276 4.3 20.9 0.00 0.74 0.13 45 1001.7
20260504211034 54 337 3.5 20.9 0.00 0.74 0.13 45 1001.6
20260504210536 55 259 3.5 11.3 0.00 0.74 0.13 45 1001.5
20260504210038 55 182 5.2 13.0 0.00 0.74 0.13 45 1001.4
20260504205632 54 171 4.3 13.0 0.00 0.77 0.13 46 1001.4
20260504205030 55 104 5.2 12.2 0.00 0.77 0.13 44 1001.3
20260504204540 55 274 4.3 12.2 0.00 0.77 0.13 45 1001.2
20260504204030 54 329 4.3 13.0 0.00 0.77 0.13 45 1001.2
20260504203526 54 255 7.0 13.0 0.00 0.77 0.13 45 1001.1
20260504203026 54 197 4.3 12.2 0.00 0.77 0.13 46 1001.1
20260504202523 54 203 6.1 13.0 0.00 0.77 0.13 47 1000.9
20260504202022 54 166 6.1 15.6 0.00 0.77 0.13 49 1000.8
20260504201521 54 216 5.2 15.6 0.00 0.77 0.13 50 1000.7
20260504201023 54 194 7.8 15.6 0.00 0.77 0.13 51 1000.5
20260504200518 54 120 7.0 15.6 0.00 0.77 0.13 52 1000.4
20260504200016 54 126 7.8 20.0 0.00 0.77 0.13 55 1000.4
20260504195513 54 116 6.1 20.0 0.00 0.78 0.13 55 1000.3
20260504195016 53 293 5.2 13.9 0.00 0.78 0.13 56 1000.1
20260504194513 54 94 6.1 13.9 0.00 0.78 0.13 57 1000.0
20260504194012 53 162 5.2 15.6 0.00 0.78 0.13 57 999.9
20260504193510 53 336 4.3 15.6 0.00 0.78 0.13 58 999.7
20260504193008 53 320 4.3 15.6 0.00 0.78 0.13 60 999.6
20260504192506 52 195 5.2 11.3 0.00 0.78 0.13 61 999.5
20260504192004 52 151 4.3 16.5 0.00 0.78 0.13 62 999.5
20260504191504 52 243 5.2 16.5 0.00 0.78 0.13 62 999.5
20260504191002 52 179 6.1 16.5 0.00 0.78 0.13 63 999.3
20260504190601 51 194 7.8 16.5 0.00 0.78 0.13 65 999.3
20260504185556 50 337 2.6 13.0 0.00 0.79 0.13 69 999.1
20260504185057 50 149 5.2 13.0 0.00 0.79 0.13 68 999.1
20260504184558 50 223 4.3 12.2 0.00 0.79 0.13 70 999.0
20260504184053 49 170 6.1 23.5 0.00 0.79 0.13 71 998.9
20260504183552 49 152 8.7 23.5 0.00 0.79 0.13 70 998.9
20260504183050 49 36 4.3 11.3 0.00 0.79 0.13 72 998.7
20260504182547 48 215 6.1 11.3 0.00 0.79 0.13 73 998.5
20260504182046 48 27 5.2 12.2 0.00 0.79 0.13 74 998.6
20260504181547 48 296 4.3 12.2 0.00 0.79 0.13 75 998.7
20260504181044 47 155 3.5 18.2 0.00 0.79 0.13 75 998.5
20260504180542 47 184 6.1 18.2 0.00 0.79 0.13 76 998.3
20260504180145 47 241 4.3 13.9 0.00 0.79 0.13 76 998.2
20260504175538 47 257 8.7 13.9 0.00 0.79 0.13 75 998.2
20260504175038 47 231 4.3 11.3 0.00 0.79 0.13 76 998.2
20260504174638 47 160 4.3 11.3 0.00 0.79 0.13 77 998.2
20260504174036 47 24 6.1 14.8 0.00 0.79 0.13 77 998.2
20260504173534 47 329 3.5 11.3 0.00 0.79 0.13 78 998.0
20260504173033 46 187 3.5 9.6 0.00 0.79 0.13 80 997.9
20260504172531 46 166 4.3 12.2 0.00 0.79 0.13 81 997.8
20260504172031 45 178 4.3 12.2 0.00 0.79 0.13 81 997.8
20260504171528 45 337 4.3 10.4 0.00 0.79 0.13 82 997.7
20260504171027 45 325 5.2 11.3 0.00 0.79 0.13 82 997.6
20260504170526 44 175 5.2 14.8 0.00 0.79 0.13 82 997.5
20260504151059 43 16 3.5 12.2 0.02 0.79 0.13 85 994.9
20260504150557 43 207 5.2 12.2 0.02 0.79 0.13 84 994.6
20260504150103 42 53 4.3 11.3 0.02 0.79 0.13 85 994.5
20260504141043 41 227 5.2 16.5 0.00 0.77 0.12 85 993.0
20260504140542 41 168 3.5 12.2 0.00 0.77 0.12 84 992.9
20260504130527 39 123 5.2 14.8 0.01 0.77 0.12 86 990.4
20260504110508 39 204 5.2 14.8 0.00 0.76 0.11 88 985.1
20260504100507 39 138 5.2 17.4 0.02 0.76 0.11 90 982.0